Map

Track Data

SID SEASON NUMBER BASIN SUBBASIN NAME ISO_TIME NATURE LAT LON WMO_WIND WMO_PRES WMO_AGENCY TRACK_TYPE DIST2LAND LANDFALL IFLAG USA_AGENCY USA_ATCF_ID USA_LAT USA_LON USA_RECORD USA_STATUS USA_WIND USA_PRES USA_SSHS USA_R34_NE USA_R34_SE USA_R34_SW USA_R34_NW USA_R50_NE USA_R50_SE USA_R50_SW USA_R50_NW USA_R64_NE USA_R64_SE USA_R64_SW USA_R64_NW USA_POCI USA_ROCI USA_RMW USA_EYE TOKYO_LAT TOKYO_LON TOKYO_GRADE TOKYO_WIND TOKYO_PRES TOKYO_R50_DIR TOKYO_R50_LONG TOKYO_R50_SHORT TOKYO_R30_DIR TOKYO_R30_LONG TOKYO_R30_SHORT TOKYO_LAND CMA_LAT CMA_LON CMA_CAT CMA_WIND CMA_PRES HKO_LAT HKO_LON HKO_CAT HKO_WIND HKO_PRES NEWDELHI_LAT NEWDELHI_LON NEWDELHI_GRADE NEWDELHI_WIND NEWDELHI_PRES NEWDELHI_CI NEWDELHI_DP NEWDELHI_POCI REUNION_LAT REUNION_LON REUNION_TYPE REUNION_WIND REUNION_PRES REUNION_TNUM REUNION_CI REUNION_RMW REUNION_R34_NE REUNION_R34_SE REUNION_R34_SW REUNION_R34_NW REUNION_R50_NE REUNION_R50_SE REUNION_R50_SW REUNION_R50_NW REUNION_R64_NE REUNION_R64_SE REUNION_R64_SW REUNION_R64_NW BOM_LAT BOM_LON BOM_TYPE BOM_WIND BOM_PRES BOM_TNUM BOM_CI BOM_RMW BOM_R34_NE BOM_R34_SE BOM_R34_SW BOM_R34_NW BOM_R50_NE BOM_R50_SE BOM_R50_SW BOM_R50_NW BOM_R64_NE BOM_R64_SE BOM_R64_SW BOM_R64_NW BOM_ROCI BOM_POCI BOM_EYE BOM_POS_METHOD BOM_PRES_METHOD NADI_LAT NADI_LON NADI_CAT NADI_WIND NADI_PRES WELLINGTON_LAT WELLINGTON_LON WELLINGTON_WIND WELLINGTON_PRES DS824_LAT DS824_LON DS824_STAGE DS824_WIND DS824_PRES TD9636_LAT TD9636_LON TD9636_STAGE TD9636_WIND TD9636_PRES TD9635_LAT TD9635_LON TD9635_WIND TD9635_PRES TD9635_ROCI NEUMANN_LAT NEUMANN_LON NEUMANN_CLASS NEUMANN_WIND NEUMANN_PRES MLC_LAT MLC_LON MLC_CLASS MLC_WIND MLC_PRES USA_GUST BOM_GUST BOM_GUST_PER REUNION_GUST REUNION_GUST_PER USA_SEAHGT USA_SEARAD_NE USA_SEARAD_SE USA_SEARAD_SW USA_SEARAD_NW STORM_SPEED STORM_DIR
1930009S15053 1930 2 SI MM NOT_NAMED 1930-01-09 06:00:00 NR -14.9000 53.0000 reunion main 270 270 _____O________ -1 -14.9000 53.0000 99 9.90000 2 50
1930009S15053 1930 2 SI MM NOT_NAMED 1930-01-09 09:00:00 NR -14.8437 53.0652 main 282 281 _____P________ -1 -14.8437 53.0652 99 1 77
1930009S15053 1930 2 SI MM NOT_NAMED 1930-01-09 12:00:00 NR -14.8740 53.1155 main 281 281 _____P____O___ -1 -14.7986 53.1206 99 -15.1000 53.1000 7 1 121
1930009S15053 1930 2 SI MM NOT_NAMED 1930-01-09 15:00:00 NR -14.8789 53.1245 main 281 281 _____P____P___ -1 -14.7762 53.1565 99 -15.0842 53.0605 7 1 207
1930009S15053 1930 2 SI MM NOT_NAMED 1930-01-09 18:00:00 NR -14.9236 53.0918 main 281 269 _____P____P___ -1 -14.7878 53.1631 99 -15.1047 52.9969 7 2 218
1930009S15053 1930 2 SI MM NOT_NAMED 1930-01-09 21:00:00 NR -15.0213 53.0077 main 269 257 _____P____P___ -1 -14.8447 53.1306 99 -15.1979 52.8848 7 4 219
1930009S15053 1930 2 SI MM NOT_NAMED 1930-01-10 00:00:00 TS -15.2036 52.8552 main 257 225 _____P___OO___ -1 -14.9581 53.0493 99 -15.4000 52.7000 TC 35 -15.4000 52.7000 2 6 218
1930009S15053 1930 2 SI MM NOT_NAMED 1930-01-10 03:00:00 TS -15.5200 52.6038 main 225 200 _____P___PP___ -1 -15.1395 52.9091 99 -15.8526 52.3479 TC 35 -15.7343 52.4263 2 9 217
1930009S15053 1930 2 SI MM NOT_NAMED 1930-01-10 06:00:00 TS -15.9265 52.2847 reunion main 200 183 _____O___OP___ -1 -15.4000 52.7000 99 9.90000 -16.3000 52.0000 TC 35 -16.1728 52.0830 2 11 217
1930009S15053 1930 2 SI MM NOT_NAMED 1930-01-10 09:00:00 TS -16.3877 51.9238 main 183 168 _____P___PP___ -1 -15.7458 52.4162 99 -16.7424 51.6572 TC 35 -16.6749 51.6980 2 12 217
1930009S15053 1930 2 SI MM NOT_NAMED 1930-01-10 12:00:00 TS -16.8543 51.5568 main 180 155 _____P___OO___ -1 -16.1629 52.0704 99 -17.2000 51.3000 TC 35 -17.2000 51.3000 2 12 217
1930009S15053 1930 2 SI MM NOT_NAMED 1930-01-10 15:00:00 TS -17.3518 51.1589 main 163 138 _____P___PP___ -1 -16.6323 51.6803 99 -17.6925 50.8999 TC 35 -17.7305 50.8965 2 13 217
1930009S15053 1930 2 SI MM NOT_NAMED 1930-01-10 18:00:00 TS -17.8676 50.7517 main 139 106 _____P___OP___ -1 -17.1348 51.2636 99 -18.2000 50.5000 TC 35 -18.2679 50.4914 2 13 216
1930009S15053 1930 2 SI MM NOT_NAMED 1930-01-10 21:00:00 TS -18.3893 50.3555 main 107 84 _____P___PP___ -1 -17.6516 50.8386 99 -18.7450 50.1127 TC 35 -18.7712 50.1154 2 12 216
1930009S15053 1930 2 SI MM NOT_NAMED 1930-01-11 00:00:00 TS -18.8546 50.0079 main 87 74 _____P___OO___ -1 -18.1637 50.4237 99 -19.2000 49.8000 TC 35 -19.2000 49.8000 2 10 216
1930009S15053 1930 2 SI MM NOT_NAMED 1930-01-11 03:00:00 TS -19.1938 49.7458 main 66 62 _____P___PP___ -1 -18.6527 50.0378 99 -19.4374 49.6196 TC 35 -19.4914 49.5799 2 8 216
1930009S15053 1930 2 SI MM NOT_NAMED 1930-01-11 06:00:00 TS -19.4698 49.5411 reunion main 62 56 _____O___OP___ -1 -19.1000 49.7000 99 9.90000 -19.6000 49.5000 TC 35 -19.7094 49.4234 2 6 213
1930009S15053 1930 2 SI MM NOT_NAMED 1930-01-11 09:00:00 TS -19.7292 49.3733 main 62 41 _____P___PP___ -1 -19.4548 49.4646 99 -19.8350 49.3500 TC 35 -19.8978 49.3053 2 6 210
1930009S15053 1930 2 SI MM NOT_NAMED 1930-01-11 12:00:00 TS -19.9928 49.2234 main 41 33 _____P___OO___ -1 -19.7785 49.2702 99 -20.1000 49.2000 TC 35 -20.1000 49.2000 2 6 207
1930009S15053 1930 2 SI MM NOT_NAMED 1930-01-11 15:00:00 TS -20.2924 49.0689 main 43 33 _____P___PP___ -1 -20.0736 49.1123 99 -20.3925 49.0425 TC 35 -20.4109 49.0518 2 7 204
1930009S15053 1930 2 SI MM NOT_NAMED 1930-01-11 18:00:00 TS -20.5933 48.9330 main 38 38 _____P___OP___ -1 -20.3425 48.9860 99 -20.7000 48.9000 TC 35 -20.7375 48.9128 2 6 201
1930009S15053 1930 2 SI MM NOT_NAMED 1930-01-11 21:00:00 TS -20.8875 48.8213 main 41 33 _____P___PP___ -1 -20.5873 48.8865 99 -21.0300 48.7850 TC 35 -21.0453 48.7924 2 6 199
1930009S15053 1930 2 SI MM NOT_NAMED 1930-01-12 00:00:00 TS -21.1368 48.7363 main 33 33 _____P___OO___ -1 -20.8104 48.8090 99 -21.3000 48.7000 TC 35 -21.3000 48.7000 2 4 198
1930009S15053 1930 2 SI MM NOT_NAMED 1930-01-12 03:00:00 TS -21.2991 48.6751 main 41 31 _____P___PP___ -1 -21.0139 48.7484 99 -21.4300 48.6349 TC 35 -21.4534 48.6419 2 3 197
1930009S15053 1930 2 SI MM NOT_NAMED 1930-01-12 06:00:00 TS -21.4175 48.6374 reunion main 31 31 _____O___OP___ -1 -21.2000 48.7000 99 9.90000 -21.5000 48.6000 TC 35 -21.5524 48.6122 2 2 192
1930009S15053 1930 2 SI MM NOT_NAMED 1930-01-12 09:00:00 TS -21.5345 48.6091 main 32 32 _____P___PP___ -1 -21.3857 48.6334 99 -21.5925 48.5925 TC 35 -21.6253 48.6014 2 2 191
1930009S15053 1930 2 SI MM NOT_NAMED 1930-01-12 12:00:00 TS -21.6502 48.5945 main 41 41 _____P___OO___ -1 -21.5506 48.5834 99 -21.7000 48.6000 TC 35 -21.7000 48.6000 2 3 184
1930009S15053 1930 2 SI MM NOT_NAMED 1930-01-12 15:00:00 TS -21.7873 48.5815 main 41 41 _____P___PP___ -1 -21.6983 48.5477 99 -21.8500 48.6000 TC 35 -21.8137 48.5968 2 3 0
1930009S15053 1930 2 SI MM NOT_NAMED 1930-01-12 18:00:00 TS -21.9224 48.5746 main 42 42 _____P___OP___ -1 -21.8322 48.5239 99 -22.0000 48.6000 TC 35 -21.9350 48.5999 2 3 185
1930009S15053 1930 2 SI MM NOT_NAMED 1930-01-12 21:00:00 TS -22.0398 48.5709 main 46 46 _____P___PP___ -1 -21.9558 48.5096 99 -22.1000 48.6000 TC 35 -22.0637 48.6031 2 2 0
1930009S15053 1930 2 SI MM NOT_NAMED 1930-01-13 00:00:00 TS -22.1575 48.5675 main 56 56 _____P___OO___ -1 -22.0726 48.5025 99 -22.2000 48.6000 TC 35 -22.2000 48.6000 2 3 186
1930009S15053 1930 2 SI MM NOT_NAMED 1930-01-13 03:00:00 TS -22.2919 48.5619 main 61 61 _____P___PP___ -1 -22.1862 48.5001 99 -22.3425 48.6075 TC 35 -22.3469 48.5782 2 3 185
1930009S15053 1930 2 SI MM NOT_NAMED 1930-01-13 06:00:00 TS -22.4333 48.5500 reunion main 65 56 _____O___OP___ -1 -22.3000 48.5000 99 9.90000 -22.5000 48.6000 TC 35 -22.5000 48.5501 2 3 187
1930009S15053 1930 2 SI MM NOT_NAMED 1930-01-13 09:00:00 TS -22.5775 48.5202 main 62 62 _____P___PP___ -1 -22.4220 48.4887 99 -22.6575 48.5500 TC 35 -22.6531 48.5219 2 3 191
1930009S15053 1930 2 SI MM NOT_NAMED 1930-01-13 12:00:00 TS -22.7136 48.4938 main 65 65 _____P___OO___ -1 -22.5409 48.4815 99 -22.8000 48.5000 TC 35 -22.8000 48.5000 2 3 191
1930009S15053 1930 2 SI MM NOT_NAMED 1930-01-13 15:00:00 TS -22.8263 48.4864 main 70 70 _____P___PP___ -1 -22.6588 48.4779 99 -22.9000 48.4925 TC 35 -22.9200 48.4887 2 2 0
1930009S15053 1930 2 SI MM NOT_NAMED 1930-01-13 18:00:00 TS -22.9375 48.4875 main 71 71 _____P___OP___ -1 -22.7775 48.4774 99 -23.0000 48.5000 TC 35 -23.0350 48.4850 2 2 0
1930009S15053 1930 2 SI MM NOT_NAMED 1930-01-13 21:00:00 TS -23.0638 48.4895 main 75 75 _____P___PP___ -1 -22.8990 48.4798 99 -23.1350 48.5000 TC 35 -23.1575 48.4888 2 3 177
1930009S15053 1930 2 SI MM NOT_NAMED 1930-01-14 00:00:00 TS -23.2084 48.4949 main 79 79 _____P___OO___ -1 -23.0253 48.4847 99 -23.3000 48.5000 TC 35 -23.3000 48.5000 2 3 176
1930009S15053 1930 2 SI MM NOT_NAMED 1930-01-14 03:00:00 TS -23.3642 48.5006 main 81 81 _____P___PP___ -1 -23.1583 48.4915 99 -23.4925 48.4925 TC 35 -23.4419 48.5178 2 3 177
1930009S15053 1930 2 SI MM NOT_NAMED 1930-01-14 06:00:00 TS -23.5367 48.5142 reunion main 82 82 _____O___OP___ -1 -23.3000 48.5000 99 9.90000 -23.7000 48.5000 TC 35 -23.6100 48.5425 2 4 175
1930009S15053 1930 2 SI MM NOT_NAMED 1930-01-14 09:00:00 TS -23.7146 48.5386 main 88 88 _____P___PP___ -1 -23.4507 48.5022 99 -23.8700 48.5425 TC 35 -23.8231 48.5710 2 4 172
1930009S15053 1930 2 SI MM NOT_NAMED 1930-01-14 12:00:00 TS -23.9364 48.5686 main 107 107 _____P___OO___ -1 -23.6091 48.5059 99 -24.1000 48.6000 TC 35 -24.1000 48.6000 2 5 173
1930009S15053 1930 2 SI MM NOT_NAMED 1930-01-14 15:00:00 TS -24.2300 48.5987 main 113 113 _____P___PP___ -1 -23.7748 48.5117 99 -24.4625 48.6574 TC 35 -24.4528 48.6271 2 6 175
1930009S15053 1930 2 SI MM NOT_NAMED 1930-01-14 18:00:00 TS -24.5092 48.6139 main 124 124 _____P___OP___ -1 -23.9475 48.5204 99 -24.9000 48.7000 TC 35 -24.8675 48.6523 2 5 178
1930009S15053 1930 2 SI MM NOT_NAMED 1930-01-14 21:00:00 TS -24.7317 48.6130 main 133 133 _____P___PP___ -1 -24.1267 48.5328 99 -25.3500 48.7101 TC 35 -25.3235 48.6764 2 3 0
1930009S15053 1930 2 SI MM NOT_NAMED 1930-01-15 00:00:00 TS -24.8081 48.5998 main 135 124 _____P___OO___ -1 -24.3122 48.5497 99 -25.8000 48.7000 TC 35 -25.8000 48.7000 2 2 352
1930009S15053 1930 2 SI MM NOT_NAMED 1930-01-15 03:00:00 NR -24.5034 48.5718 main 124 124 _____P________ -1 -24.5034 48.5718 99 TC 2 1 0
1930009S15053 1930 2 SI MM NOT_NAMED 1930-01-15 06:00:00 NR -24.7000 48.6000 reunion main 133 133 _____O________ -1 -24.7000 48.6000 99 9.90000 2 4 173
1930009S15053 1930 2 SI MM NOT_NAMED 1930-01-15 09:00:00 NR -24.9016 48.6347 main 138 138 _____P________ -1 -24.9016 48.6347 99 2 4 171
1930009S15053 1930 2 SI MM NOT_NAMED 1930-01-15 12:00:00 NR -25.1075 48.6754 main 156 156 _____P________ -1 -25.1075 48.6754 99 4 170
1930009S15053 1930 2 SI MM NOT_NAMED 1930-01-15 15:00:00 NR -25.3173 48.7213 main 164 164 _____P________ -1 -25.3173 48.7213 99 4 168
1930009S15053 1930 2 SI MM NOT_NAMED 1930-01-15 18:00:00 NR -25.5301 48.7715 main 179 179 _____P________ -1 -25.5301 48.7715 99 4 167
1930009S15053 1930 2 SI MM NOT_NAMED 1930-01-15 21:00:00 NR -25.7454 48.8254 main 187 187 _____P________ -1 -25.7454 48.8254 99 4 167
1930009S15053 1930 2 SI MM NOT_NAMED 1930-01-16 00:00:00 NR -25.9626 48.8820 main 212 212 _____P________ -1 -25.9626 48.8820 99 4 167
1930009S15053 1930 2 SI MM NOT_NAMED 1930-01-16 03:00:00 NR -26.1810 48.9404 main 224 224 _____P________ -1 -26.1810 48.9404 99 5 167
1930009S15053 1930 2 SI MM NOT_NAMED 1930-01-16 06:00:00 NR -26.4000 49.0000 reunion main 246 _____O________ -1 -26.4000 49.0000 99 9.90000 5 164

About IBTrACS Database

This database is a web-friendly format of International Best Track Archive for Climate Stewardship (IBTrACS), a global best track data archive curated by NOAA dating back to 1842.

Updated: 2021-12-08